sensor_id;sensor_type;location;lat;lon;timestamp;P1;durP1;ratioP1;P2;durP2;ratioP2
43793;SDS011;29414;44.798;20.366;2023-08-17T00:01:09;12.14;;;9.92;;
43793;SDS011;29414;44.798;20.366;2023-08-17T00:05:10;14.32;;;11.07;;
43793;SDS011;29414;44.798;20.366;2023-08-17T00:09:10;13.38;;;11.38;;
43793;SDS011;29414;44.798;20.366;2023-08-17T00:13:10;13.88;;;11.30;;
43793;SDS011;29414;44.798;20.366;2023-08-17T00:17:14;14.88;;;11.65;;
43793;SDS011;29414;44.798;20.366;2023-08-17T00:21:14;16.23;;;13.05;;
43793;SDS011;29414;44.798;20.366;2023-08-17T00:25:17;15.65;;;14.23;;
43793;SDS011;29414;44.798;20.366;2023-08-17T00:29:18;26.15;;;23.45;;
43793;SDS011;29414;44.798;20.366;2023-08-17T00:33:18;21.52;;;19.65;;
43793;SDS011;29414;44.798;20.366;2023-08-17T00:37:18;44.17;;;40.50;;
43793;SDS011;29414;44.798;20.366;2023-08-17T00:41:19;52.38;;;48.05;;
43793;SDS011;29414;44.798;20.366;2023-08-17T00:45:19;44.88;;;41.05;;
43793;SDS011;29414;44.798;20.366;2023-08-17T00:49:19;37.72;;;34.72;;
43793;SDS011;29414;44.798;20.366;2023-08-17T00:53:20;28.13;;;25.30;;
43793;SDS011;29414;44.798;20.366;2023-08-17T00:57:20;24.90;;;22.55;;
43793;SDS011;29414;44.798;20.366;2023-08-17T01:01:24;25.77;;;23.27;;
43793;SDS011;29414;44.798;20.366;2023-08-17T01:05:24;20.02;;;17.98;;
43793;SDS011;29414;44.798;20.366;2023-08-17T01:09:24;18.02;;;16.33;;
43793;SDS011;29414;44.798;20.366;2023-08-17T01:13:34;16.27;;;15.05;;
43793;SDS011;29414;44.798;20.366;2023-08-17T01:21:57;14.00;;;12.65;;
43793;SDS011;29414;44.798;20.366;2023-08-17T01:26:00;17.23;;;13.25;;
43793;SDS011;29414;44.798;20.366;2023-08-17T01:30:00;13.10;;;11.90;;
43793;SDS011;29414;44.798;20.366;2023-08-17T01:34:04;13.98;;;11.55;;
43793;SDS011;29414;44.798;20.366;2023-08-17T01:38:09;13.50;;;12.05;;
43793;SDS011;29414;44.798;20.366;2023-08-17T01:42:12;12.75;;;11.40;;
43793;SDS011;29414;44.798;20.366;2023-08-17T01:46:16;13.52;;;12.43;;
43793;SDS011;29414;44.798;20.366;2023-08-17T01:50:16;11.73;;;10.65;;
43793;SDS011;29414;44.798;20.366;2023-08-17T01:54:16;13.25;;;11.85;;
43793;SDS011;29414;44.798;20.366;2023-08-17T01:58:17;12.57;;;11.27;;
43793;SDS011;29414;44.798;20.366;2023-08-17T02:02:17;16.08;;;12.48;;
43793;SDS011;29414;44.798;20.366;2023-08-17T02:06:17;15.93;;;12.52;;
43793;SDS011;29414;44.798;20.366;2023-08-17T02:10:17;12.00;;;10.85;;
43793;SDS011;29414;44.798;20.366;2023-08-17T02:14:18;12.05;;;10.95;;
43793;SDS011;29414;44.798;20.366;2023-08-17T02:18:18;12.82;;;11.55;;
43793;SDS011;29414;44.798;20.366;2023-08-17T02:22:18;12.57;;;11.30;;
43793;SDS011;29414;44.798;20.366;2023-08-17T02:26:19;12.10;;;10.95;;
43793;SDS011;29414;44.798;20.366;2023-08-17T02:30:19;13.75;;;11.68;;
43793;SDS011;29414;44.798;20.366;2023-08-17T02:34:19;14.02;;;11.50;;
43793;SDS011;29414;44.798;20.366;2023-08-17T02:38:19;13.93;;;10.57;;
43793;SDS011;29414;44.798;20.366;2023-08-17T02:42:20;13.88;;;12.63;;
43793;SDS011;29414;44.798;20.366;2023-08-17T02:46:20;14.43;;;11.77;;
43793;SDS011;29414;44.798;20.366;2023-08-17T02:50:20;12.52;;;11.32;;
43793;SDS011;29414;44.798;20.366;2023-08-17T02:54:20;11.63;;;10.68;;
43793;SDS011;29414;44.798;20.366;2023-08-17T02:58:21;14.07;;;11.68;;
43793;SDS011;29414;44.798;20.366;2023-08-17T03:02:21;12.30;;;10.85;;
43793;SDS011;29414;44.798;20.366;2023-08-17T03:06:24;13.77;;;12.43;;
43793;SDS011;29414;44.798;20.366;2023-08-17T03:10:25;13.60;;;12.23;;
43793;SDS011;29414;44.798;20.366;2023-08-17T03:14:25;13.43;;;11.85;;
43793;SDS011;29414;44.798;20.366;2023-08-17T03:18:25;15.60;;;13.18;;
43793;SDS011;29414;44.798;20.366;2023-08-17T03:22:25;12.77;;;11.55;;
43793;SDS011;29414;44.798;20.366;2023-08-17T03:26:26;14.65;;;13.23;;
43793;SDS011;29414;44.798;20.366;2023-08-17T03:30:27;13.55;;;12.27;;
43793;SDS011;29414;44.798;20.366;2023-08-17T03:34:27;12.80;;;11.60;;
43793;SDS011;29414;44.798;20.366;2023-08-17T03:38:27;13.32;;;12.05;;
43793;SDS011;29414;44.798;20.366;2023-08-17T03:42:28;10.55;;;9.43;;
43793;SDS011;29414;44.798;20.366;2023-08-17T03:46:28;8.90;;;8.13;;
43793;SDS011;29414;44.798;20.366;2023-08-17T03:50:28;15.55;;;11.07;;
43793;SDS011;29414;44.798;20.366;2023-08-17T03:54:29;15.23;;;13.00;;
43793;SDS011;29414;44.798;20.366;2023-08-17T03:58:29;11.65;;;10.75;;
43793;SDS011;29414;44.798;20.366;2023-08-17T04:02:33;17.88;;;15.80;;
43793;SDS011;29414;44.798;20.366;2023-08-17T04:06:34;19.38;;;17.23;;
43793;SDS011;29414;44.798;20.366;2023-08-17T04:10:34;35.33;;;20.40;;
43793;SDS011;29414;44.798;20.366;2023-08-17T04:14:34;33.78;;;19.85;;
43793;SDS011;29414;44.798;20.366;2023-08-17T04:18:35;21.23;;;19.33;;
43793;SDS011;29414;44.798;20.366;2023-08-17T04:22:35;16.55;;;15.20;;
43793;SDS011;29414;44.798;20.366;2023-08-17T04:26:35;24.40;;;20.17;;
43793;SDS011;29414;44.798;20.366;2023-08-17T04:30:37;78.68;;;23.33;;
43793;SDS011;29414;44.798;20.366;2023-08-17T04:34:37;30.58;;;24.08;;
43793;SDS011;29414;44.798;20.366;2023-08-17T04:38:38;26.42;;;22.70;;
43793;SDS011;29414;44.798;20.366;2023-08-17T04:42:38;23.15;;;21.05;;
43793;SDS011;29414;44.798;20.366;2023-08-17T04:46:38;22.17;;;20.08;;
43793;SDS011;29414;44.798;20.366;2023-08-17T04:50:39;55.95;;;22.55;;
43793;SDS011;29414;44.798;20.366;2023-08-17T04:54:39;22.48;;;20.13;;
43793;SDS011;29414;44.798;20.366;2023-08-17T04:58:39;23.27;;;21.20;;
43793;SDS011;29414;44.798;20.366;2023-08-17T05:02:39;81.32;;;23.15;;
43793;SDS011;29414;44.798;20.366;2023-08-17T05:06:40;103.05;;;23.25;;
43793;SDS011;29414;44.798;20.366;2023-08-17T05:10:40;156.48;;;27.90;;
43793;SDS011;29414;44.798;20.366;2023-08-17T05:14:40;71.70;;;26.65;;
43793;SDS011;29414;44.798;20.366;2023-08-17T05:18:41;124.35;;;29.38;;
43793;SDS011;29414;44.798;20.366;2023-08-17T05:22:44;302.23;;;36.63;;
43793;SDS011;29414;44.798;20.366;2023-08-17T05:26:44;202.82;;;32.28;;
43793;SDS011;29414;44.798;20.366;2023-08-17T05:30:44;146.50;;;32.53;;
43793;SDS011;29414;44.798;20.366;2023-08-17T05:34:44;210.43;;;33.40;;
43793;SDS011;29414;44.798;20.366;2023-08-17T05:38:46;229.00;;;41.08;;
43793;SDS011;29414;44.798;20.366;2023-08-17T05:42:46;32.17;;;28.33;;
43793;SDS011;29414;44.798;20.366;2023-08-17T05:46:47;41.35;;;29.30;;
43793;SDS011;29414;44.798;20.366;2023-08-17T05:50:48;90.82;;;33.38;;
43793;SDS011;29414;44.798;20.366;2023-08-17T05:54:48;76.65;;;33.38;;
43793;SDS011;29414;44.798;20.366;2023-08-17T05:58:49;121.75;;;37.72;;
43793;SDS011;29414;44.798;20.366;2023-08-17T06:02:49;118.70;;;35.75;;
43793;SDS011;29414;44.798;20.366;2023-08-17T06:06:51;67.07;;;35.08;;
43793;SDS011;29414;44.798;20.366;2023-08-17T06:10:51;96.85;;;37.50;;
43793;SDS011;29414;44.798;20.366;2023-08-17T06:14:52;96.47;;;39.15;;
43793;SDS011;29414;44.798;20.366;2023-08-17T06:18:52;84.78;;;36.90;;
43793;SDS011;29414;44.798;20.366;2023-08-17T06:22:52;38.17;;;33.95;;
43793;SDS011;29414;44.798;20.366;2023-08-17T06:26:52;45.75;;;32.10;;
43793;SDS011;29414;44.798;20.366;2023-08-17T06:30:53;103.90;;;38.90;;
43793;SDS011;29414;44.798;20.366;2023-08-17T06:34:54;61.45;;;36.10;;
43793;SDS011;29414;44.798;20.366;2023-08-17T06:38:54;66.72;;;33.35;;
43793;SDS011;29414;44.798;20.366;2023-08-17T06:42:54;48.05;;;31.52;;
43793;SDS011;29414;44.798;20.366;2023-08-17T06:46:55;34.88;;;31.33;;
43793;SDS011;29414;44.798;20.366;2023-08-17T06:50:55;30.10;;;27.08;;
43793;SDS011;29414;44.798;20.366;2023-08-17T06:54:56;32.13;;;28.95;;
43793;SDS011;29414;44.798;20.366;2023-08-17T06:58:56;24.45;;;22.23;;
43793;SDS011;29414;44.798;20.366;2023-08-17T07:02:56;25.88;;;23.48;;
43793;SDS011;29414;44.798;20.366;2023-08-17T07:06:58;24.15;;;22.05;;
43793;SDS011;29414;44.798;20.366;2023-08-17T07:10:58;25.27;;;23.08;;
43793;SDS011;29414;44.798;20.366;2023-08-17T07:14:58;23.63;;;21.52;;
43793;SDS011;29414;44.798;20.366;2023-08-17T07:18:58;25.95;;;23.75;;
43793;SDS011;29414;44.798;20.366;2023-08-17T07:22:59;24.05;;;22.05;;
43793;SDS011;29414;44.798;20.366;2023-08-17T07:26:59;23.17;;;21.25;;
43793;SDS011;29414;44.798;20.366;2023-08-17T07:30:59;22.25;;;20.15;;
43793;SDS011;29414;44.798;20.366;2023-08-17T07:35:00;26.88;;;24.58;;
43793;SDS011;29414;44.798;20.366;2023-08-17T07:39:00;26.80;;;24.33;;
43793;SDS011;29414;44.798;20.366;2023-08-17T07:43:00;27.25;;;24.65;;
43793;SDS011;29414;44.798;20.366;2023-08-17T07:47:01;23.83;;;21.65;;
43793;SDS011;29414;44.798;20.366;2023-08-17T07:51:02;23.95;;;21.60;;
43793;SDS011;29414;44.798;20.366;2023-08-17T07:55:02;27.85;;;25.58;;
43793;SDS011;29414;44.798;20.366;2023-08-17T07:59:03;24.77;;;22.25;;
43793;SDS011;29414;44.798;20.366;2023-08-17T08:03:03;28.98;;;26.10;;
43793;SDS011;29414;44.798;20.366;2023-08-17T08:07:04;28.92;;;26.30;;
43793;SDS011;29414;44.798;20.366;2023-08-17T08:11:04;25.58;;;23.45;;
43793;SDS011;29414;44.798;20.366;2023-08-17T08:15:05;25.88;;;23.48;;
43793;SDS011;29414;44.798;20.366;2023-08-17T08:19:05;25.95;;;23.52;;
43793;SDS011;29414;44.798;20.366;2023-08-17T08:23:05;25.90;;;23.25;;
43793;SDS011;29414;44.798;20.366;2023-08-17T08:27:06;20.95;;;19.25;;
43793;SDS011;29414;44.798;20.366;2023-08-17T08:31:06;21.27;;;19.58;;
43793;SDS011;29414;44.798;20.366;2023-08-17T08:35:06;18.95;;;17.35;;
43793;SDS011;29414;44.798;20.366;2023-08-17T08:39:07;21.38;;;19.58;;
43793;SDS011;29414;44.798;20.366;2023-08-17T08:43:07;19.17;;;17.67;;
43793;SDS011;29414;44.798;20.366;2023-08-17T08:47:09;16.98;;;15.20;;
43793;SDS011;29414;44.798;20.366;2023-08-17T08:51:10;21.10;;;19.05;;
43793;SDS011;29414;44.798;20.366;2023-08-17T08:55:17;20.20;;;18.40;;
43793;SDS011;29414;44.798;20.366;2023-08-17T08:59:18;18.20;;;16.50;;
43793;SDS011;29414;44.798;20.366;2023-08-17T09:03:20;17.17;;;15.57;;
43793;SDS011;29414;44.798;20.366;2023-08-17T09:07:20;15.65;;;14.25;;
43793;SDS011;29414;44.798;20.366;2023-08-17T09:11:22;16.13;;;14.65;;
43793;SDS011;29414;44.798;20.366;2023-08-17T09:15:22;15.20;;;13.88;;
43793;SDS011;29414;44.798;20.366;2023-08-17T09:19:22;16.10;;;14.73;;
43793;SDS011;29414;44.798;20.366;2023-08-17T09:23:22;14.15;;;12.95;;
43793;SDS011;29414;44.798;20.366;2023-08-17T09:27:23;14.13;;;12.75;;
43793;SDS011;29414;44.798;20.366;2023-08-17T09:31:24;11.73;;;10.57;;
43793;SDS011;29414;44.798;20.366;2023-08-17T09:35:24;12.55;;;11.38;;
43793;SDS011;29414;44.798;20.366;2023-08-17T09:39:24;13.93;;;12.50;;
43793;SDS011;29414;44.798;20.366;2023-08-17T09:43:25;17.63;;;16.00;;
43793;SDS011;29414;44.798;20.366;2023-08-17T09:47:29;13.77;;;11.43;;
43793;SDS011;29414;44.798;20.366;2023-08-17T09:51:29;13.55;;;12.20;;
43793;SDS011;29414;44.798;20.366;2023-08-17T09:55:31;19.30;;;12.55;;
43793;SDS011;29414;44.798;20.366;2023-08-17T09:59:34;16.48;;;14.98;;
43793;SDS011;29414;44.798;20.366;2023-08-17T10:03:35;14.25;;;12.80;;
43793;SDS011;29414;44.798;20.366;2023-08-17T10:07:40;14.30;;;13.02;;
43793;SDS011;29414;44.798;20.366;2023-08-17T10:11:41;14.63;;;13.00;;
43793;SDS011;29414;44.798;20.366;2023-08-17T10:16:02;15.70;;;12.98;;
43793;SDS011;29414;44.798;20.366;2023-08-17T10:20:03;13.38;;;12.18;;
43793;SDS011;29414;44.798;20.366;2023-08-17T10:24:03;15.10;;;13.25;;
43793;SDS011;29414;44.798;20.366;2023-08-17T10:28:05;15.20;;;13.80;;
43793;SDS011;29414;44.798;20.366;2023-08-17T10:32:06;11.88;;;10.88;;
43793;SDS011;29414;44.798;20.366;2023-08-17T10:36:09;12.45;;;11.25;;
43793;SDS011;29414;44.798;20.366;2023-08-17T10:40:10;11.65;;;10.55;;
43793;SDS011;29414;44.798;20.366;2023-08-17T10:44:10;11.80;;;10.80;;
43793;SDS011;29414;44.798;20.366;2023-08-17T10:52:15;15.43;;;12.20;;
43793;SDS011;29414;44.798;20.366;2023-08-17T10:56:16;10.68;;;9.75;;
43793;SDS011;29414;44.798;20.366;2023-08-17T11:00:23;9.90;;;9.02;;
43793;SDS011;29414;44.798;20.366;2023-08-17T11:04:32;10.75;;;9.02;;
43793;SDS011;29414;44.798;20.366;2023-08-17T11:08:38;9.00;;;8.15;;
43793;SDS011;29414;44.798;20.366;2023-08-17T11:12:41;8.90;;;8.07;;
43793;SDS011;29414;44.798;20.366;2023-08-17T11:16:41;9.90;;;7.80;;
43793;SDS011;29414;44.798;20.366;2023-08-17T11:20:41;9.45;;;8.65;;
43793;SDS011;29414;44.798;20.366;2023-08-17T11:24:42;9.73;;;9.02;;
43793;SDS011;29414;44.798;20.366;2023-08-17T11:28:43;10.30;;;9.13;;
43793;SDS011;29414;44.798;20.366;2023-08-17T11:32:45;8.95;;;7.85;;
43793;SDS011;29414;44.798;20.366;2023-08-17T11:36:45;8.77;;;7.88;;
43793;SDS011;29414;44.798;20.366;2023-08-17T11:40:45;11.43;;;8.90;;
43793;SDS011;29414;44.798;20.366;2023-08-17T11:44:46;8.98;;;8.05;;
43793;SDS011;29414;44.798;20.366;2023-08-17T11:48:46;12.57;;;10.63;;
43793;SDS011;29414;44.798;20.366;2023-08-17T11:52:46;14.73;;;10.48;;
43793;SDS011;29414;44.798;20.366;2023-08-17T11:56:47;14.85;;;10.38;;
43793;SDS011;29414;44.798;20.366;2023-08-17T12:00:47;11.67;;;10.47;;
43793;SDS011;29414;44.798;20.366;2023-08-17T12:04:47;10.80;;;9.75;;
43793;SDS011;29414;44.798;20.366;2023-08-17T12:08:48;9.63;;;8.73;;
43793;SDS011;29414;44.798;20.366;2023-08-17T12:12:48;11.38;;;10.25;;
43793;SDS011;29414;44.798;20.366;2023-08-17T12:16:49;11.80;;;10.80;;
43793;SDS011;29414;44.798;20.366;2023-08-17T12:20:52;10.68;;;9.60;;
43793;SDS011;29414;44.798;20.366;2023-08-17T12:24:53;13.02;;;10.15;;
43793;SDS011;29414;44.798;20.366;2023-08-17T12:28:53;11.60;;;10.45;;
43793;SDS011;29414;44.798;20.366;2023-08-17T12:32:53;13.00;;;11.87;;
43793;SDS011;29414;44.798;20.366;2023-08-17T12:36:54;12.05;;;11.25;;
43793;SDS011;29414;44.798;20.366;2023-08-17T12:40:54;11.70;;;10.70;;
43793;SDS011;29414;44.798;20.366;2023-08-17T12:44:54;13.05;;;11.95;;
43793;SDS011;29414;44.798;20.366;2023-08-17T12:48:55;13.52;;;12.32;;
43793;SDS011;29414;44.798;20.366;2023-08-17T12:52:55;12.00;;;10.90;;
43793;SDS011;29414;44.798;20.366;2023-08-17T12:56:55;13.93;;;12.77;;
43793;SDS011;29414;44.798;20.366;2023-08-17T13:00:55;12.50;;;11.55;;
43793;SDS011;29414;44.798;20.366;2023-08-17T13:04:56;14.20;;;12.80;;
43793;SDS011;29414;44.798;20.366;2023-08-17T13:08:57;15.15;;;13.68;;
43793;SDS011;29414;44.798;20.366;2023-08-17T13:12:57;14.15;;;12.90;;
43793;SDS011;29414;44.798;20.366;2023-08-17T13:16:59;14.07;;;12.90;;
43793;SDS011;29414;44.798;20.366;2023-08-17T13:20:59;13.40;;;12.37;;
43793;SDS011;29414;44.798;20.366;2023-08-17T13:24:59;13.80;;;12.60;;
43793;SDS011;29414;44.798;20.366;2023-08-17T13:29:00;14.18;;;11.88;;
43793;SDS011;29414;44.798;20.366;2023-08-17T13:33:00;13.50;;;12.38;;
43793;SDS011;29414;44.798;20.366;2023-08-17T13:37:00;17.33;;;14.32;;
43793;SDS011;29414;44.798;20.366;2023-08-17T13:41:02;13.23;;;12.05;;
43793;SDS011;29414;44.798;20.366;2023-08-17T13:45:03;12.35;;;11.25;;
43793;SDS011;29414;44.798;20.366;2023-08-17T13:49:04;11.15;;;10.15;;
43793;SDS011;29414;44.798;20.366;2023-08-17T13:53:04;10.48;;;9.68;;
43793;SDS011;29414;44.798;20.366;2023-08-17T13:57:04;12.03;;;11.13;;
43793;SDS011;29414;44.798;20.366;2023-08-17T14:01:04;11.87;;;10.97;;
43793;SDS011;29414;44.798;20.366;2023-08-17T14:05:05;10.85;;;9.75;;
43793;SDS011;29414;44.798;20.366;2023-08-17T14:09:05;12.63;;;11.50;;
43793;SDS011;29414;44.798;20.366;2023-08-17T14:13:06;13.52;;;11.05;;
43793;SDS011;29414;44.798;20.366;2023-08-17T14:17:06;11.73;;;10.80;;
43793;SDS011;29414;44.798;20.366;2023-08-17T14:21:06;11.23;;;10.07;;
43793;SDS011;29414;44.798;20.366;2023-08-17T14:25:07;10.23;;;9.38;;
43793;SDS011;29414;44.798;20.366;2023-08-17T14:29:07;11.18;;;9.90;;
43793;SDS011;29414;44.798;20.366;2023-08-17T14:33:07;9.88;;;9.02;;
43793;SDS011;29414;44.798;20.366;2023-08-17T14:37:08;10.43;;;9.43;;
43793;SDS011;29414;44.798;20.366;2023-08-17T14:41:08;10.77;;;9.77;;
43793;SDS011;29414;44.798;20.366;2023-08-17T14:45:10;9.82;;;9.02;;
43793;SDS011;29414;44.798;20.366;2023-08-17T14:49:11;10.25;;;9.45;;
43793;SDS011;29414;44.798;20.366;2023-08-17T14:53:11;9.95;;;8.95;;
43793;SDS011;29414;44.798;20.366;2023-08-17T14:57:11;10.70;;;9.70;;
43793;SDS011;29414;44.798;20.366;2023-08-17T15:01:11;10.45;;;9.65;;
43793;SDS011;29414;44.798;20.366;2023-08-17T15:05:12;9.90;;;8.90;;
43793;SDS011;29414;44.798;20.366;2023-08-17T15:09:12;11.60;;;10.52;;
43793;SDS011;29414;44.798;20.366;2023-08-17T15:13:13;11.73;;;9.20;;
43793;SDS011;29414;44.798;20.366;2023-08-17T15:17:13;10.07;;;9.27;;
43793;SDS011;29414;44.798;20.366;2023-08-17T15:21:14;10.55;;;9.65;;
43793;SDS011;29414;44.798;20.366;2023-08-17T15:25:14;9.90;;;8.93;;
43793;SDS011;29414;44.798;20.366;2023-08-17T15:29:14;10.13;;;9.23;;
43793;SDS011;29414;44.798;20.366;2023-08-17T15:33:15;8.05;;;7.35;;
43793;SDS011;29414;44.798;20.366;2023-08-17T15:37:15;9.03;;;8.20;;
43793;SDS011;29414;44.798;20.366;2023-08-17T15:41:17;9.88;;;8.98;;
43793;SDS011;29414;44.798;20.366;2023-08-17T15:45:17;10.00;;;8.93;;
43793;SDS011;29414;44.798;20.366;2023-08-17T15:49:18;9.82;;;8.88;;
43793;SDS011;29414;44.798;20.366;2023-08-17T15:53:18;8.80;;;7.60;;
43793;SDS011;29414;44.798;20.366;2023-08-17T15:57:18;9.43;;;7.70;;
43793;SDS011;29414;44.798;20.366;2023-08-17T16:01:18;9.77;;;7.43;;
43793;SDS011;29414;44.798;20.366;2023-08-17T16:05:19;9.10;;;8.18;;
43793;SDS011;29414;44.798;20.366;2023-08-17T16:09:22;7.97;;;7.30;;
43793;SDS011;29414;44.798;20.366;2023-08-17T16:13:22;8.05;;;7.03;;
43793;SDS011;29414;44.798;20.366;2023-08-17T16:17:23;10.00;;;8.15;;
43793;SDS011;29414;44.798;20.366;2023-08-17T16:21:23;9.60;;;7.97;;
43793;SDS011;29414;44.798;20.366;2023-08-17T16:25:23;10.32;;;8.30;;
43793;SDS011;29414;44.798;20.366;2023-08-17T16:29:23;8.38;;;7.75;;
43793;SDS011;29414;44.798;20.366;2023-08-17T16:33:24;9.90;;;7.93;;
43793;SDS011;29414;44.798;20.366;2023-08-17T16:37:24;8.73;;;7.88;;
43793;SDS011;29414;44.798;20.366;2023-08-17T16:41:24;8.80;;;8.00;;
43793;SDS011;29414;44.798;20.366;2023-08-17T16:45:25;9.00;;;8.15;;
43793;SDS011;29414;44.798;20.366;2023-08-17T16:49:25;8.77;;;7.88;;
43793;SDS011;29414;44.798;20.366;2023-08-17T16:53:26;7.93;;;7.07;;
43793;SDS011;29414;44.798;20.366;2023-08-17T16:57:26;9.40;;;7.50;;
43793;SDS011;29414;44.798;20.366;2023-08-17T17:01:26;7.70;;;7.00;;
43793;SDS011;29414;44.798;20.366;2023-08-17T17:05:27;11.70;;;7.63;;
43793;SDS011;29414;44.798;20.366;2023-08-17T17:09:27;8.60;;;7.20;;
43793;SDS011;29414;44.798;20.366;2023-08-17T17:13:28;9.38;;;7.82;;
43793;SDS011;29414;44.798;20.366;2023-08-17T17:17:28;10.77;;;7.20;;
43793;SDS011;29414;44.798;20.366;2023-08-17T17:21:29;11.55;;;7.93;;
43793;SDS011;29414;44.798;20.366;2023-08-17T17:25:29;8.52;;;7.35;;
43793;SDS011;29414;44.798;20.366;2023-08-17T17:29:29;8.25;;;7.47;;
43793;SDS011;29414;44.798;20.366;2023-08-17T17:33:30;9.95;;;8.95;;
43793;SDS011;29414;44.798;20.366;2023-08-17T17:37:30;11.07;;;10.10;;
43793;SDS011;29414;44.798;20.366;2023-08-17T17:41:30;10.32;;;9.30;;
43793;SDS011;29414;44.798;20.366;2023-08-17T17:45:30;10.70;;;9.68;;
43793;SDS011;29414;44.798;20.366;2023-08-17T17:49:31;10.98;;;10.05;;
43793;SDS011;29414;44.798;20.366;2023-08-17T17:53:31;11.15;;;10.02;;
43793;SDS011;29414;44.798;20.366;2023-08-17T17:57:31;11.13;;;10.23;;
43793;SDS011;29414;44.798;20.366;2023-08-17T18:01:33;11.30;;;10.27;;
43793;SDS011;29414;44.798;20.366;2023-08-17T18:05:33;12.45;;;11.23;;
43793;SDS011;29414;44.798;20.366;2023-08-17T18:09:36;13.30;;;12.00;;
43793;SDS011;29414;44.798;20.366;2023-08-17T18:13:37;13.45;;;11.13;;
43793;SDS011;29414;44.798;20.366;2023-08-17T18:17:37;11.90;;;10.70;;
43793;SDS011;29414;44.798;20.366;2023-08-17T18:21:37;12.52;;;11.38;;
43793;SDS011;29414;44.798;20.366;2023-08-17T18:25:38;14.50;;;11.93;;
43793;SDS011;29414;44.798;20.366;2023-08-17T18:29:38;16.20;;;12.98;;
43793;SDS011;29414;44.798;20.366;2023-08-17T18:33:39;15.70;;;12.75;;
43793;SDS011;29414;44.798;20.366;2023-08-17T18:37:40;12.25;;;11.07;;
43793;SDS011;29414;44.798;20.366;2023-08-17T18:41:41;13.95;;;11.95;;
43793;SDS011;29414;44.798;20.366;2023-08-17T18:45:42;12.93;;;11.63;;
43793;SDS011;29414;44.798;20.366;2023-08-17T18:49:42;12.53;;;11.47;;
43793;SDS011;29414;44.798;20.366;2023-08-17T18:53:43;12.43;;;11.00;;
43793;SDS011;29414;44.798;20.366;2023-08-17T18:57:43;13.40;;;12.30;;
43793;SDS011;29414;44.798;20.366;2023-08-17T19:01:44;13.07;;;11.93;;
43793;SDS011;29414;44.798;20.366;2023-08-17T19:05:44;12.68;;;11.23;;
43793;SDS011;29414;44.798;20.366;2023-08-17T19:09:46;11.27;;;10.45;;
43793;SDS011;29414;44.798;20.366;2023-08-17T19:13:47;12.20;;;10.52;;
43793;SDS011;29414;44.798;20.366;2023-08-17T19:17:47;12.10;;;10.45;;
43793;SDS011;29414;44.798;20.366;2023-08-17T19:21:47;12.35;;;11.05;;
43793;SDS011;29414;44.798;20.366;2023-08-17T19:25:48;14.10;;;12.80;;
43793;SDS011;29414;44.798;20.366;2023-08-17T19:29:48;15.10;;;13.48;;
43793;SDS011;29414;44.798;20.366;2023-08-17T19:33:48;15.13;;;13.35;;
43793;SDS011;29414;44.798;20.366;2023-08-17T19:37:48;14.43;;;13.00;;
43793;SDS011;29414;44.798;20.366;2023-08-17T19:41:51;15.57;;;13.98;;
43793;SDS011;29414;44.798;20.366;2023-08-17T19:45:51;15.75;;;13.57;;
43793;SDS011;29414;44.798;20.366;2023-08-17T19:49:51;14.87;;;13.30;;
43793;SDS011;29414;44.798;20.366;2023-08-17T19:53:52;23.67;;;21.33;;
43793;SDS011;29414;44.798;20.366;2023-08-17T19:57:52;20.42;;;18.27;;
43793;SDS011;29414;44.798;20.366;2023-08-17T20:01:57;19.02;;;17.20;;
43793;SDS011;29414;44.798;20.366;2023-08-17T20:05:58;21.45;;;17.75;;
43793;SDS011;29414;44.798;20.366;2023-08-17T20:09:59;21.67;;;19.48;;
43793;SDS011;29414;44.798;20.366;2023-08-17T20:14:02;20.55;;;18.50;;
43793;SDS011;29414;44.798;20.366;2023-08-17T20:18:02;22.98;;;20.60;;
43793;SDS011;29414;44.798;20.366;2023-08-17T20:22:03;22.40;;;20.23;;
43793;SDS011;29414;44.798;20.366;2023-08-17T20:26:04;25.40;;;22.75;;
43793;SDS011;29414;44.798;20.366;2023-08-17T20:30:05;25.23;;;22.73;;
43793;SDS011;29414;44.798;20.366;2023-08-17T20:34:06;26.98;;;24.58;;
43793;SDS011;29414;44.798;20.366;2023-08-17T20:38:06;33.15;;;29.65;;
43793;SDS011;29414;44.798;20.366;2023-08-17T20:42:07;32.17;;;28.83;;
43793;SDS011;29414;44.798;20.366;2023-08-17T20:46:07;32.88;;;29.38;;
43793;SDS011;29414;44.798;20.366;2023-08-17T20:50:08;29.95;;;26.85;;
43793;SDS011;29414;44.798;20.366;2023-08-17T20:54:10;26.00;;;23.45;;
43793;SDS011;29414;44.798;20.366;2023-08-17T20:58:10;28.38;;;24.40;;
43793;SDS011;29414;44.798;20.366;2023-08-17T21:02:11;35.00;;;29.08;;
43793;SDS011;29414;44.798;20.366;2023-08-17T21:06:12;26.25;;;23.67;;
43793;SDS011;29414;44.798;20.366;2023-08-17T21:10:13;26.35;;;21.92;;
43793;SDS011;29414;44.798;20.366;2023-08-17T21:14:13;24.80;;;22.50;;
43793;SDS011;29414;44.798;20.366;2023-08-17T21:18:13;22.85;;;20.65;;
43793;SDS011;29414;44.798;20.366;2023-08-17T21:22:13;21.95;;;19.65;;
43793;SDS011;29414;44.798;20.366;2023-08-17T21:26:14;22.25;;;19.85;;
43793;SDS011;29414;44.798;20.366;2023-08-17T21:30:14;31.45;;;20.02;;
43793;SDS011;29414;44.798;20.366;2023-08-17T21:34:15;22.70;;;19.13;;
43793;SDS011;29414;44.798;20.366;2023-08-17T21:38:18;29.00;;;22.80;;
43793;SDS011;29414;44.798;20.366;2023-08-17T21:42:18;30.15;;;25.33;;
43793;SDS011;29414;44.798;20.366;2023-08-17T21:46:19;27.17;;;23.92;;
43793;SDS011;29414;44.798;20.366;2023-08-17T21:50:20;26.30;;;22.50;;
43793;SDS011;29414;44.798;20.366;2023-08-17T21:54:20;21.67;;;19.48;;
43793;SDS011;29414;44.798;20.366;2023-08-17T21:58:20;20.70;;;18.95;;
43793;SDS011;29414;44.798;20.366;2023-08-17T22:02:20;23.75;;;20.48;;
43793;SDS011;29414;44.798;20.366;2023-08-17T22:06:21;23.90;;;21.45;;
43793;SDS011;29414;44.798;20.366;2023-08-17T22:10:21;27.92;;;24.30;;
43793;SDS011;29414;44.798;20.366;2023-08-17T22:14:23;26.27;;;20.15;;
43793;SDS011;29414;44.798;20.366;2023-08-17T22:18:24;22.63;;;20.45;;
43793;SDS011;29414;44.798;20.366;2023-08-17T22:22:25;23.90;;;21.30;;
43793;SDS011;29414;44.798;20.366;2023-08-17T22:26:25;23.67;;;21.40;;
43793;SDS011;29414;44.798;20.366;2023-08-17T22:30:25;25.15;;;22.65;;
43793;SDS011;29414;44.798;20.366;2023-08-17T22:34:25;23.77;;;21.67;;
43793;SDS011;29414;44.798;20.366;2023-08-17T22:38:26;29.05;;;26.05;;
43793;SDS011;29414;44.798;20.366;2023-08-17T22:42:26;33.83;;;30.52;;
43793;SDS011;29414;44.798;20.366;2023-08-17T22:46:26;28.13;;;25.33;;
43793;SDS011;29414;44.798;20.366;2023-08-17T22:50:27;26.35;;;24.08;;
43793;SDS011;29414;44.798;20.366;2023-08-17T22:54:27;30.48;;;27.60;;
43793;SDS011;29414;44.798;20.366;2023-08-17T22:58:27;27.52;;;24.67;;
43793;SDS011;29414;44.798;20.366;2023-08-17T23:02:28;27.58;;;24.50;;
43793;SDS011;29414;44.798;20.366;2023-08-17T23:06:28;38.38;;;34.75;;
43793;SDS011;29414;44.798;20.366;2023-08-17T23:10:29;34.50;;;30.80;;
43793;SDS011;29414;44.798;20.366;2023-08-17T23:14:29;31.02;;;28.08;;
43793;SDS011;29414;44.798;20.366;2023-08-17T23:18:30;38.85;;;34.88;;
43793;SDS011;29414;44.798;20.366;2023-08-17T23:22:30;37.22;;;33.65;;